createdAt,value
2019-02-17T00:01:25.850Z,-0.21
2019-02-17T00:03:59.131Z,-0.31
2019-02-17T00:06:33.603Z,-0.16
2019-02-17T00:09:10.201Z,-0.25
2019-02-17T00:11:43.486Z,-0.27
2019-02-17T00:14:16.762Z,-0.26
2019-02-17T00:16:50.102Z,-0.27
2019-02-17T00:19:23.386Z,-0.36
2019-02-17T00:21:56.705Z,-0.28
2019-02-17T00:24:30.023Z,-0.25
2019-02-17T00:27:03.311Z,-0.42
2019-02-17T00:29:36.614Z,-0.58
2019-02-17T00:32:10.917Z,-0.74
2019-02-17T00:34:45.856Z,-0.86
2019-02-17T00:37:19.158Z,-0.69
2019-02-17T00:39:54.070Z,-0.72
2019-02-17T00:42:27.402Z,-0.73
2019-02-17T00:45:00.673Z,-0.71
2019-02-17T00:47:34.556Z,-0.68
2019-02-17T00:50:09.507Z,-0.74
2019-02-17T00:52:42.823Z,-0.72
2019-02-17T00:55:16.209Z,-0.58
2019-02-17T00:57:49.504Z,-0.59
2019-02-17T01:00:22.798Z,-0.72
2019-02-17T01:02:56.096Z,-0.62
2019-02-17T01:05:30.494Z,-0.69
2019-02-17T01:08:03.781Z,-0.81
2019-02-17T01:10:37.540Z,-0.88
2019-02-17T01:13:10.844Z,-0.82
2019-02-17T01:15:44.149Z,-0.92
2019-02-17T01:18:17.443Z,-0.89
2019-02-17T01:20:50.759Z,-0.75
2019-02-17T01:23:24.065Z,-0.72
2019-02-17T01:25:57.380Z,-0.78
2019-02-17T01:28:30.679Z,-0.86
2019-02-17T01:31:04.063Z,-0.89
2019-02-17T01:33:37.352Z,-0.89
2019-02-17T01:36:10.724Z,-0.97
2019-02-17T01:38:44.285Z,-1.04
2019-02-17T01:41:17.609Z,-1.14
2019-02-17T01:43:52.461Z,-1.19
2019-02-17T01:46:25.794Z,-1.25
2019-02-17T01:48:59.074Z,-1.22
2019-02-17T01:51:34.039Z,-1.25
2019-02-17T01:54:07.295Z,-1.17
2019-02-17T01:56:40.603Z,-1.31
2019-02-17T01:59:13.896Z,-1.22
2019-02-17T02:01:47.777Z,-1.13
2019-02-17T02:04:21.087Z,-1.10
2019-02-17T02:06:54.430Z,-1.12
2019-02-17T02:09:27.717Z,-1.10
2019-02-17T02:12:01.030Z,-1.17
2019-02-17T02:14:34.341Z,-1.28
2019-02-17T02:17:07.686Z,-1.40
2019-02-17T02:19:40.991Z,-1.47
2019-02-17T02:22:14.309Z,-1.24
2019-02-17T02:24:47.623Z,-0.98
2019-02-17T02:27:20.933Z,-0.89
2019-02-17T02:29:54.234Z,-1.13
2019-02-17T02:32:27.555Z,-1.18
2019-02-17T02:35:00.917Z,-1.17
2019-02-17T02:37:34.233Z,-1.28
2019-02-17T02:40:08.305Z,-1.35
2019-02-17T02:42:42.966Z,-1.46
2019-02-17T02:45:16.292Z,-1.60
2019-02-17T02:47:49.602Z,-1.62
2019-02-17T02:50:22.898Z,-1.66
2019-02-17T02:52:56.195Z,-1.66
2019-02-17T02:55:29.494Z,-1.60
2019-02-17T02:58:02.872Z,-1.62
2019-02-17T03:00:36.186Z,-1.58
2019-02-17T03:03:09.493Z,-1.59
2019-02-17T03:05:44.424Z,-1.63
2019-02-17T03:08:17.747Z,-1.54
2019-02-17T03:10:51.059Z,-1.53
2019-02-17T03:13:24.356Z,-1.57
2019-02-17T03:15:57.633Z,-1.59
2019-02-17T03:18:30.940Z,-1.63
2019-02-17T03:21:04.220Z,-1.63
2019-02-17T03:23:37.538Z,-1.68
2019-02-17T03:26:10.835Z,-1.66
2019-02-17T03:28:44.140Z,-1.70
2019-02-17T03:31:17.564Z,-1.70
2019-02-17T03:33:50.834Z,-1.78
2019-02-17T03:36:24.132Z,-1.85
2019-02-17T03:38:57.422Z,-1.91
2019-02-17T03:41:30.712Z,-2.00
2019-02-17T03:44:04.107Z,-1.95
2019-02-17T03:46:37.403Z,-2.01
2019-02-17T03:49:10.722Z,-2.01
2019-02-17T03:51:44.002Z,-2.01
2019-02-17T03:54:17.327Z,-2.05
2019-02-17T03:56:50.618Z,-2.06
2019-02-17T03:59:23.921Z,-2.05
2019-02-17T04:01:57.201Z,-2.03
2019-02-17T04:04:30.538Z,-2.06
2019-02-17T04:07:04.068Z,-2.09
2019-02-17T04:09:37.374Z,-2.03
2019-02-17T04:12:10.644Z,-2.07
2019-02-17T04:14:44.345Z,-2.03
2019-02-17T04:17:17.714Z,-2.03
2019-02-17T04:19:50.995Z,-2.08
2019-02-17T04:22:25.280Z,-2.16
2019-02-17T04:24:58.583Z,-2.21
2019-02-17T04:27:31.877Z,-2.23
2019-02-17T04:30:06.019Z,-2.23
2019-02-17T04:32:39.300Z,-2.20
2019-02-17T04:35:12.604Z,-2.21
2019-02-17T04:37:45.886Z,-2.25
2019-02-17T04:40:19.255Z,-2.25
2019-02-17T04:42:52.550Z,-2.25
2019-02-17T04:45:25.884Z,-2.26
2019-02-17T04:48:00.698Z,-2.25
2019-02-17T04:50:33.926Z,-2.28
2019-02-17T04:53:07.214Z,-2.26
2019-02-17T04:55:40.521Z,-2.28
2019-02-17T04:58:13.792Z,-2.21
2019-02-17T05:00:47.088Z,-2.29
2019-02-17T05:03:20.363Z,-2.42
2019-02-17T05:05:53.667Z,-2.42
2019-02-17T05:08:26.952Z,-2.45
2019-02-17T05:11:00.928Z,-2.37
2019-02-17T05:13:34.193Z,-2.40
2019-02-17T05:16:07.504Z,-2.39
2019-02-17T05:18:42.423Z,-2.40
2019-02-17T05:21:15.724Z,-2.41
2019-02-17T05:23:49.015Z,-2.43
2019-02-17T05:26:22.309Z,-2.48
2019-02-17T05:28:56.629Z,-2.45
2019-02-17T05:31:31.710Z,-2.45
2019-02-17T05:34:04.984Z,-2.41
2019-02-17T05:36:38.288Z,-2.44
2019-02-17T05:39:11.599Z,-2.47
2019-02-17T05:41:44.887Z,-2.41
2019-02-17T05:44:18.163Z,-2.52
2019-02-17T05:46:51.467Z,-2.52
2019-02-17T05:49:24.735Z,-2.57
2019-02-17T05:51:59.685Z,-2.62
2019-02-17T05:54:32.996Z,-2.64
2019-02-17T05:57:06.313Z,-2.63
2019-02-17T05:59:39.426Z,-2.49
2019-02-17T06:02:12.722Z,-2.48
2019-02-17T06:04:46.015Z,-2.47
2019-02-17T06:07:19.306Z,-2.48
2019-02-17T06:09:52.629Z,-2.52
2019-02-17T06:12:25.880Z,-2.56
2019-02-17T06:15:00.847Z,-2.58
2019-02-17T06:17:36.227Z,-2.62
2019-02-17T06:20:10.867Z,-2.62
2019-02-17T06:22:45.315Z,-2.65
2019-02-17T06:25:18.604Z,-2.68
2019-02-17T06:27:51.895Z,-2.72
2019-02-17T06:30:25.204Z,-2.70
2019-02-17T06:32:59.832Z,-2.66
2019-02-17T06:35:33.107Z,-2.67
2019-02-17T06:38:06.405Z,-2.68
2019-02-17T06:40:41.249Z,-2.71
2019-02-17T06:43:15.282Z,-2.70
2019-02-17T06:45:48.584Z,-2.66
2019-02-17T06:48:21.864Z,-2.63
2019-02-17T06:50:55.196Z,-2.61
2019-02-17T06:53:28.498Z,-2.60
2019-02-17T06:56:03.435Z,-2.61
2019-02-17T06:58:36.721Z,-2.59
2019-02-17T07:01:10.013Z,-2.51
2019-02-17T07:03:44.935Z,-2.54
2019-02-17T07:06:22.584Z,-2.60
2019-02-17T07:08:55.857Z,-2.60
2019-02-17T07:11:29.173Z,-2.43
2019-02-17T07:14:02.455Z,-2.30
2019-02-17T07:16:35.779Z,-2.24
2019-02-17T07:19:09.066Z,-2.00
2019-02-17T07:21:42.364Z,-1.88
2019-02-17T07:24:15.668Z,-1.76
2019-02-17T07:26:48.971Z,-1.57
2019-02-17T07:29:22.255Z,-1.44
2019-02-17T07:31:55.567Z,-1.31
2019-02-17T07:34:28.849Z,-1.22
2019-02-17T07:37:02.156Z,-1.14
2019-02-17T07:39:35.271Z,-1.09
2019-02-17T07:42:09.636Z,-0.91
2019-02-17T07:44:43.040Z,-0.84
2019-02-17T07:47:18.135Z,-0.77
2019-02-17T07:49:51.510Z,-0.70
2019-02-17T07:52:24.806Z,-0.56
2019-02-17T07:54:58.095Z,-0.36
2019-02-17T07:57:31.399Z,-0.25
2019-02-17T08:00:07.824Z,-0.20
2019-02-17T08:02:41.712Z,-0.10
2019-02-17T08:05:15.000Z,0.05
2019-02-17T08:07:48.300Z,0.30
2019-02-17T08:10:21.579Z,0.49
2019-02-17T08:12:56.219Z,0.68
2019-02-17T08:15:29.511Z,0.88
2019-02-17T08:18:02.803Z,1.04
2019-02-17T08:20:36.644Z,1.12
2019-02-17T08:23:10.143Z,1.26
2019-02-17T08:25:43.439Z,1.43
2019-02-17T08:28:16.748Z,1.53
2019-02-17T08:30:50.029Z,1.69
2019-02-17T08:33:23.384Z,1.73
2019-02-17T08:35:56.669Z,1.85
2019-02-17T08:38:29.996Z,2.01
2019-02-17T08:41:04.654Z,2.12
2019-02-17T08:43:39.068Z,2.17
2019-02-17T08:46:12.350Z,2.18
2019-02-17T08:48:45.660Z,2.20
2019-02-17T08:51:18.954Z,2.41
2019-02-17T08:53:52.361Z,2.48
2019-02-17T08:56:25.659Z,2.61
2019-02-17T08:58:59.029Z,2.79
2019-02-17T09:01:32.293Z,2.92
2019-02-17T09:04:05.615Z,3.21
2019-02-17T09:06:38.959Z,3.34
2019-02-17T09:09:13.805Z,3.52
2019-02-17T09:11:47.095Z,3.67
2019-02-17T09:14:20.412Z,3.84
2019-02-17T09:16:53.704Z,3.92
2019-02-17T09:19:27.018Z,4.03
2019-02-17T09:22:00.301Z,4.12
2019-02-17T09:24:33.632Z,4.30
2019-02-17T09:27:06.910Z,4.41
2019-02-17T09:29:40.204Z,4.60
2019-02-17T09:32:16.213Z,4.63
2019-02-17T09:34:48.529Z,4.83
2019-02-17T09:37:21.901Z,5.06
2019-02-17T09:39:55.202Z,5.33
2019-02-17T09:42:28.540Z,5.45
2019-02-17T09:45:01.953Z,5.82
2019-02-17T09:47:35.260Z,6.01
2019-02-17T09:50:13.108Z,6.17
2019-02-17T09:52:46.394Z,6.43
2019-02-17T09:55:20.576Z,6.58
2019-02-17T09:57:53.910Z,6.74
2019-02-17T10:00:27.223Z,7.00
2019-02-17T10:03:00.523Z,7.32
2019-02-17T10:05:33.857Z,7.41
2019-02-17T10:08:07.154Z,7.64
2019-02-17T10:10:40.466Z,7.75
2019-02-17T10:13:13.750Z,7.82
2019-02-17T10:15:47.119Z,7.93
2019-02-17T10:18:20.392Z,8.10
2019-02-17T10:20:53.722Z,8.05
2019-02-17T10:23:27.011Z,8.03
2019-02-17T10:26:00.328Z,8.09
2019-02-17T10:28:42.066Z,8.12
2019-02-17T10:31:08.734Z,8.21
2019-02-17T10:33:42.005Z,8.31
2019-02-17T10:36:15.311Z,8.51
2019-02-17T10:38:48.605Z,8.79
2019-02-17T10:41:21.917Z,8.89
2019-02-17T10:43:55.207Z,9.12
2019-02-17T10:46:28.516Z,9.32
2019-02-17T10:49:01.824Z,9.52
2019-02-17T10:51:35.109Z,9.72
2019-02-17T10:54:08.409Z,9.92
2019-02-17T10:56:43.324Z,10.30
2019-02-17T10:59:16.625Z,10.36
2019-02-17T11:01:49.991Z,10.69
2019-02-17T11:04:23.312Z,10.90
2019-02-17T11:06:56.592Z,10.78
2019-02-17T11:09:29.895Z,11.28
2019-02-17T11:12:03.210Z,12.84
2019-02-17T11:14:36.524Z,14.45
2019-02-17T11:17:09.831Z,14.17
2019-02-17T11:19:43.120Z,14.70
2019-02-17T11:22:22.946Z,14.95
2019-02-17T11:24:52.988Z,16.00
2019-02-17T11:27:26.274Z,16.24
2019-02-17T11:29:59.585Z,14.84
2019-02-17T11:32:32.889Z,15.47
2019-02-17T11:35:06.920Z,15.14
2019-02-17T11:37:40.207Z,15.85
2019-02-17T11:40:13.891Z,16.39
2019-02-17T11:42:47.167Z,15.91
2019-02-17T11:45:21.032Z,16.49
2019-02-17T11:47:54.563Z,16.26
2019-02-17T11:50:28.968Z,16.65
2019-02-17T11:53:02.252Z,15.93
2019-02-17T11:55:35.404Z,17.30
2019-02-17T11:58:08.706Z,17.20
2019-02-17T12:00:41.823Z,16.80
2019-02-17T12:03:15.126Z,17.85
2019-02-17T12:05:48.415Z,18.16
2019-02-17T12:08:21.708Z,17.01
2019-02-17T12:10:55.047Z,17.63
2019-02-17T12:13:28.359Z,17.40
2019-02-17T12:16:01.691Z,16.81
2019-02-17T12:18:34.986Z,17.57
2019-02-17T12:21:12.679Z,18.56
2019-02-17T12:24:03.485Z,17.63
2019-02-17T12:26:44.251Z,17.61
2019-02-17T12:29:19.169Z,18.11
2019-02-17T12:31:52.469Z,17.36
2019-02-17T12:34:25.828Z,18.09
2019-02-17T12:36:59.142Z,18.41
2019-02-17T12:39:32.420Z,18.04
2019-02-17T12:42:05.725Z,18.35
2019-02-17T12:44:39.112Z,17.85
2019-02-17T12:47:12.395Z,17.53
2019-02-17T12:49:45.676Z,17.72
2019-02-17T12:52:18.996Z,18.31
2019-02-17T12:54:52.280Z,19.60
2019-02-17T12:57:25.588Z,18.79
2019-02-17T12:59:58.871Z,20.09
2019-02-17T13:02:32.169Z,19.05
2019-02-17T13:05:07.627Z,18.95
2019-02-17T13:07:42.695Z,19.97
2019-02-17T13:10:15.990Z,19.76
2019-02-17T13:12:49.314Z,19.26
2019-02-17T13:15:22.590Z,19.15
2019-02-17T13:17:55.948Z,20.04
2019-02-17T13:20:29.187Z,20.07
2019-02-17T13:23:02.532Z,18.76
2019-02-17T13:25:38.082Z,19.72
2019-02-17T13:28:10.855Z,19.23
2019-02-17T13:30:44.134Z,19.15
2019-02-17T13:33:17.820Z,19.04
2019-02-17T13:35:51.135Z,20.27
2019-02-17T13:38:24.486Z,19.35
2019-02-17T13:40:57.783Z,19.27
2019-02-17T13:43:31.094Z,19.73
2019-02-17T13:46:04.407Z,19.59
2019-02-17T13:48:37.716Z,19.36
2019-02-17T13:51:11.027Z,19.98
2019-02-17T13:53:44.343Z,21.14
2019-02-17T13:56:17.634Z,20.32
2019-02-17T13:58:50.943Z,20.14
2019-02-17T14:01:24.245Z,19.15
2019-02-17T14:03:57.541Z,19.80
2019-02-17T14:06:30.825Z,20.41
2019-02-17T14:09:04.875Z,19.40
2019-02-17T14:11:38.181Z,19.95
2019-02-17T14:14:11.506Z,20.89
2019-02-17T14:16:44.788Z,20.58
2019-02-17T14:19:18.087Z,21.16
2019-02-17T14:21:51.389Z,21.69
2019-02-17T14:24:24.729Z,20.68
2019-02-17T14:26:58.013Z,21.76
2019-02-17T14:29:31.336Z,20.14
2019-02-17T14:32:06.265Z,20.67
2019-02-17T14:34:39.602Z,20.44
2019-02-17T14:37:13.366Z,20.78
2019-02-17T14:39:46.777Z,20.10
2019-02-17T14:42:20.148Z,20.50
2019-02-17T14:44:55.089Z,20.14
2019-02-17T14:47:28.402Z,19.61
2019-02-17T14:50:01.722Z,19.31
2019-02-17T14:52:35.098Z,20.56
2019-02-17T14:55:12.498Z,20.22
2019-02-17T14:57:45.793Z,19.66
2019-02-17T15:00:19.088Z,20.35
2019-02-17T15:02:52.383Z,20.23
2019-02-17T15:05:25.668Z,20.52
2019-02-17T15:07:58.971Z,19.89
2019-02-17T15:10:32.264Z,20.33
2019-02-17T15:13:05.618Z,20.38
2019-02-17T15:15:38.913Z,20.31
2019-02-17T15:18:12.257Z,21.04
2019-02-17T15:20:45.529Z,20.40
2019-02-17T15:23:18.863Z,19.50
2019-02-17T15:25:52.127Z,19.74
2019-02-17T15:28:25.504Z,19.91
2019-02-17T15:30:58.820Z,19.90
2019-02-17T15:33:33.122Z,19.22
2019-02-17T15:36:06.407Z,19.23
2019-02-17T15:38:39.722Z,17.76
2019-02-17T15:41:13.080Z,17.13
2019-02-17T15:43:48.031Z,16.64
2019-02-17T15:46:21.279Z,16.48
2019-02-17T15:48:54.596Z,16.30
2019-02-17T15:51:27.894Z,16.19
2019-02-17T15:54:01.201Z,16.03
2019-02-17T15:56:34.496Z,15.93
2019-02-17T15:59:07.787Z,15.69
2019-02-17T16:01:41.079Z,15.69
2019-02-17T16:04:14.387Z,15.55
2019-02-17T16:06:47.673Z,15.34
2019-02-17T16:09:20.985Z,15.07
2019-02-17T16:11:54.286Z,14.98
2019-02-17T16:14:27.623Z,15.16
2019-02-17T16:17:00.902Z,15.04
2019-02-17T16:19:34.224Z,14.88
2019-02-17T16:22:07.528Z,14.92
2019-02-17T16:24:40.821Z,14.79
2019-02-17T16:27:14.791Z,14.69
2019-02-17T16:29:48.113Z,14.64
2019-02-17T16:32:21.848Z,14.41
2019-02-17T16:34:55.136Z,13.98
2019-02-17T16:37:28.442Z,13.60
2019-02-17T16:40:01.760Z,13.48
2019-02-17T16:42:35.051Z,13.39
2019-02-17T16:45:10.809Z,13.30
2019-02-17T16:47:47.216Z,12.73
2019-02-17T16:50:31.043Z,12.05
2019-02-17T16:53:07.300Z,11.63
2019-02-17T16:55:41.150Z,11.30
2019-02-17T16:58:14.420Z,10.92
2019-02-17T17:00:48.017Z,10.59
2019-02-17T17:03:21.300Z,10.33
2019-02-17T17:05:54.625Z,10.25
2019-02-17T17:08:27.895Z,9.93
2019-02-17T17:11:04.349Z,9.74
2019-02-17T17:13:37.633Z,9.66
2019-02-17T17:16:10.973Z,9.47
2019-02-17T17:18:44.251Z,9.41
2019-02-17T17:21:17.545Z,9.29
2019-02-17T17:23:50.828Z,9.16
2019-02-17T17:26:24.130Z,9.04
2019-02-17T17:28:57.394Z,8.96
2019-02-17T17:31:30.707Z,8.85
2019-02-17T17:34:03.992Z,8.77
2019-02-17T17:36:37.345Z,8.70
2019-02-17T17:39:10.612Z,8.60
2019-02-17T17:41:43.922Z,8.44
2019-02-17T17:44:17.240Z,8.29
2019-02-17T17:46:50.599Z,8.11
2019-02-17T17:49:23.844Z,7.99
2019-02-17T17:51:57.150Z,7.87
2019-02-17T17:54:30.435Z,7.62
2019-02-17T17:57:03.924Z,7.39
2019-02-17T17:59:37.239Z,7.10
2019-02-17T18:02:10.565Z,7.00
2019-02-17T18:04:45.422Z,6.94
2019-02-17T18:07:18.732Z,6.76
2019-02-17T18:09:52.073Z,6.70
2019-02-17T18:12:25.346Z,6.69
2019-02-17T18:14:58.655Z,6.64
2019-02-17T18:17:31.953Z,6.60
2019-02-17T18:20:09.297Z,6.40
2019-02-17T18:22:42.702Z,6.37
2019-02-17T18:25:16.076Z,6.20
2019-02-17T18:27:49.372Z,6.08
2019-02-17T18:30:22.658Z,6.10
2019-02-17T18:32:55.990Z,6.14
2019-02-17T18:35:29.298Z,6.08
2019-02-17T18:38:02.594Z,6.14
2019-02-17T18:40:44.734Z,6.20
2019-02-17T18:43:11.025Z,6.05
2019-02-17T18:45:44.296Z,5.89
2019-02-17T18:48:17.671Z,5.48
2019-02-17T18:50:58.920Z,5.71
2019-02-17T18:53:26.002Z,5.72
2019-02-17T18:55:59.307Z,5.85
2019-02-17T18:58:32.590Z,5.64
2019-02-17T19:01:05.990Z,5.52
2019-02-17T19:03:39.274Z,5.31
2019-02-17T19:06:12.649Z,5.30
2019-02-17T19:08:45.920Z,5.26
2019-02-17T19:11:19.279Z,5.18
2019-02-17T19:13:52.574Z,5.14
2019-02-17T19:16:25.952Z,5.04
2019-02-17T19:18:59.239Z,4.99
2019-02-17T19:21:32.565Z,4.81
2019-02-17T19:24:05.875Z,4.77
2019-02-17T19:26:40.350Z,4.74
2019-02-17T19:29:13.714Z,4.73
2019-02-17T19:31:47.015Z,4.79
2019-02-17T19:34:20.302Z,4.68
2019-02-17T19:36:53.694Z,4.59
2019-02-17T19:39:26.996Z,4.49
2019-02-17T19:42:00.296Z,4.39
2019-02-17T19:44:33.595Z,4.39
2019-02-17T19:47:06.966Z,4.33
2019-02-17T19:49:40.258Z,4.29
2019-02-17T19:52:13.560Z,4.19
2019-02-17T19:54:47.446Z,4.07
2019-02-17T19:57:21.424Z,3.91
2019-02-17T19:59:54.759Z,3.90
2019-02-17T20:02:29.738Z,3.96
2019-02-17T20:05:08.035Z,3.91
2019-02-17T20:07:41.336Z,3.76
2019-02-17T20:10:14.715Z,3.42
2019-02-17T20:12:47.984Z,3.46
2019-02-17T20:15:23.149Z,3.32
2019-02-17T20:17:56.493Z,3.46
2019-02-17T20:20:29.774Z,3.48
2019-02-17T20:23:04.496Z,3.51
2019-02-17T20:25:37.801Z,3.48
2019-02-17T20:28:11.673Z,3.48
2019-02-17T20:30:44.981Z,3.55
2019-02-17T20:33:18.291Z,3.53
2019-02-17T20:36:02.103Z,3.46
2019-02-17T20:38:26.678Z,3.35
2019-02-17T20:41:00.228Z,3.33
2019-02-17T20:43:33.639Z,3.35
2019-02-17T20:46:06.934Z,3.28
2019-02-17T20:48:40.347Z,3.13
2019-02-17T20:51:13.640Z,2.92
2019-02-17T20:53:47.552Z,2.88
2019-02-17T20:56:20.798Z,2.86
2019-02-17T20:58:54.107Z,2.95
2019-02-17T21:01:27.534Z,2.68
2019-02-17T21:04:00.840Z,2.55
2019-02-17T21:06:34.130Z,2.68
2019-02-17T21:09:07.432Z,2.49
2019-02-17T21:11:40.730Z,2.45
2019-02-17T21:14:14.041Z,2.27
2019-02-17T21:16:47.327Z,2.30
2019-02-17T21:19:20.653Z,2.48
2019-02-17T21:21:54.008Z,2.52
2019-02-17T21:24:28.399Z,2.43
2019-02-17T21:27:03.322Z,2.40
2019-02-17T21:29:38.254Z,2.38
2019-02-17T21:32:11.531Z,2.26
2019-02-17T21:34:44.843Z,2.18
2019-02-17T21:37:18.125Z,2.09
2019-02-17T21:39:51.414Z,1.98
2019-02-17T21:42:24.761Z,1.88
2019-02-17T21:44:58.078Z,1.80
2019-02-17T21:47:31.353Z,1.88
2019-02-17T21:50:13.377Z,2.15
2019-02-17T21:52:46.655Z,2.17
2019-02-17T21:55:20.017Z,2.14
2019-02-17T21:57:53.599Z,2.01
2019-02-17T22:00:26.940Z,1.84
2019-02-17T22:03:00.227Z,1.94
2019-02-17T22:05:35.191Z,1.88
2019-02-17T22:08:08.440Z,1.68
2019-02-17T22:10:41.759Z,1.54
2019-02-17T22:13:15.047Z,1.52
2019-02-17T22:15:48.336Z,1.35
2019-02-17T22:18:21.616Z,1.26
2019-02-17T22:20:54.949Z,1.25
2019-02-17T22:23:29.769Z,1.26
2019-02-17T22:26:03.082Z,1.20
2019-02-17T22:28:36.353Z,1.26
2019-02-17T22:31:09.694Z,1.23
2019-02-17T22:33:45.804Z,1.46
2019-02-17T22:36:19.123Z,1.27
2019-02-17T22:38:52.396Z,1.27
2019-02-17T22:41:25.843Z,1.26
2019-02-17T22:43:59.128Z,1.13
2019-02-17T22:46:32.424Z,1.36
2019-02-17T22:49:05.730Z,1.23
2019-02-17T22:51:39.015Z,1.22
2019-02-17T22:54:12.296Z,1.19
2019-02-17T22:56:45.587Z,0.99
2019-02-17T22:59:18.874Z,0.98
2019-02-17T23:01:52.185Z,0.92
2019-02-17T23:04:25.473Z,0.81
2019-02-17T23:06:58.848Z,0.66
2019-02-17T23:09:32.130Z,0.48
2019-02-17T23:12:05.576Z,0.56
2019-02-17T23:14:38.893Z,0.63
2019-02-17T23:17:12.169Z,0.59
2019-02-17T23:19:45.481Z,0.64
2019-02-17T23:22:18.784Z,0.58
2019-02-17T23:24:52.151Z,0.47
2019-02-17T23:27:25.437Z,0.46
2019-02-17T23:29:58.732Z,0.43
2019-02-17T23:32:32.027Z,0.35
2019-02-17T23:35:05.668Z,0.28
2019-02-17T23:37:38.943Z,0.20
2019-02-17T23:40:12.424Z,0.12
2019-02-17T23:42:45.708Z,0.11
2019-02-17T23:45:19.055Z,0.06
2019-02-17T23:47:52.334Z,0.15
2019-02-17T23:50:25.761Z,0.07
2019-02-17T23:53:00.423Z,-0.02
2019-02-17T23:55:33.729Z,-0.04
2019-02-17T23:58:07.022Z,0.06
